Bluff Point, New York
Current Conditions -  °F | °C
As of 1:53 AM on Monday 22 Dec 2014 (Local Time) from KPEO Reporting Station
Overcast Overcast  
Wind Chill: 22°   Ceiling: 2400
Heat Index: 29°   Visibility: 10mi
Dew Point: 20°   Wind: 7mph
Humidity: 69%   Direction: 160°SSE
Pressure: 30.28"   Gusts: NA
Location:  42.58°N, 77.128°W
Report Text: KPEO 220653Z AUTO 16006KT 10SM OVC024 M02/M07 A3028 RMK AO2 SLP265 T10171067
Loading
Personal Weather Stations






























Interactive Weather Map New forecast layout! Learn more

10-Day Weather Forecast

Advertisements
Track Severe Weather on mobile